Terminal Aerodrome Forecast
Issued by NWS Cheyenne, WY

Home | Current Version | Previous Version | Text Only | Print | Product List | Glossary On
Versions: 1 2 3 4 5 6 7 8 9 10 11 12 13 14 15 16 17 18 19 20 21 22 23 24 25 26 27 28 29 30 31 32 33 34 35 36 37 38 39
000
FTUS45 KCYS 251720
TAFCYS
TAF
KCYS 251720Z 2518/2618 25008KT P6SM BKN120 BKN200
     FM252000 29012G22KT P6SM VCTS SCT060CB BKN100
      TEMPO 2520/2522 TSRA BKN050CB
     FM260200 23007KT 5SM -SHRA SCT015 BKN035
     FM260800 13007KT 1SM -RA BR OVC003=

USA.gov is the U.S. government's official web portal to all federal, state and local government web resources and services.